Time;durP1;ratioP1;P1;durP2;ratioP2;P2;SDS_P1;SDS_P2;PMS_P1;PMS_P2;Temp;Humidity;BMP_temperature;BMP_pressure;BME280_temperature;BME280_humidity;BME280_pressure;Samples;Min_cycle;Max_cycle;Signal;HPM_P1;HPM_P2
2021/12/02 00:00:46;;;;;;;12.70;4.60;;;3.60;99.90;;;;;;5014566;23;20343;-79
2021/12/02 00:02:47;;;;;;;18.38;4.18;;;3.70;99.90;;;;;;5014678;23;20499;-81
2021/12/02 00:04:48;;;;;;;9.23;4.28;;;3.70;99.90;;;;;;5012101;23;20624;-79
2021/12/02 00:06:48;;;;;;;11.00;3.72;;;3.70;99.90;;;;;;5012314;23;20086;-79
2021/12/02 00:08:51;;;;;;;15.10;4.72;;;3.60;99.90;;;;;;5013658;23;20018;-79
2021/12/02 00:10:52;;;;;;;15.33;3.57;;;3.50;99.90;;;;;;5014127;23;20371;-80
2021/12/02 00:12:54;;;;;;;14.57;3.67;;;3.50;99.90;;;;;;5013095;23;20029;-80
2021/12/02 00:14:55;;;;;;;13.75;3.10;;;3.50;99.90;;;;;;5016315;23;20039;-79
2021/12/02 00:21:22;;;;;;;11.88;3.88;;;3.50;99.90;;;;;;5016037;23;19917;-78
2021/12/02 00:23:29;;;;;;;10.88;2.92;;;3.60;99.90;;;;;;5015018;23;20015;-80
2021/12/02 00:25:29;;;;;;;12.40;4.70;;;3.70;99.90;;;;;;5017075;23;20701;-81
2021/12/02 00:27:30;;;;;;;11.15;3.55;;;3.70;99.90;;;;;;5015429;23;20011;-79
2021/12/02 00:29:33;;;;;;;11.55;4.20;;;3.80;99.90;;;;;;5017207;23;20011;-81
2021/12/02 00:31:37;;;;;;;14.80;3.17;;;3.90;99.90;;;;;;5016750;23;20011;-81
2021/12/02 00:33:41;;;;;;;9.43;3.47;;;4.10;99.90;;;;;;5015214;23;20396;-79
2021/12/02 00:35:44;;;;;;;7.68;3.13;;;4.10;99.90;;;;;;5014705;23;20025;-79
2021/12/02 00:37:44;;;;;;;7.88;2.55;;;4.20;99.90;;;;;;5015447;23;20018;-79
2021/12/02 00:39:46;;;;;;;7.75;2.88;;;4.20;99.90;;;;;;5016556;23;20015;-79
2021/12/02 00:41:48;;;;;;;7.68;3.33;;;4.10;99.90;;;;;;5016869;23;20021;-79
2021/12/02 00:43:52;;;;;;;8.57;2.65;;;4.00;99.90;;;;;;5016391;23;20049;-79
2021/12/02 00:45:54;;;;;;;9.10;2.83;;;4.00;99.90;;;;;;5017385;23;20014;-80
2021/12/02 00:47:55;;;;;;;7.60;3.00;;;3.90;99.90;;;;;;5015922;23;20011;-79
2021/12/02 00:49:55;;;;;;;7.78;2.30;;;3.80;99.90;;;;;;5016705;23;20221;-80
2021/12/02 00:51:58;;;;;;;13.82;4.35;;;3.70;99.90;;;;;;5015572;23;20011;-79
2021/12/02 00:54:05;;;;;;;6.47;3.03;;;3.70;99.90;;;;;;5016726;23;20078;-79
2021/12/02 00:56:11;;;;;;;7.57;3.38;;;3.70;99.90;;;;;;5014536;23;20017;-79
2021/12/02 00:58:18;;;;;;;7.65;2.50;;;3.60;99.90;;;;;;5016557;23;20030;-79
2021/12/02 01:00:19;;;;;;;10.82;3.17;;;3.40;99.90;;;;;;5014619;23;20011;-79
2021/12/02 01:02:21;;;;;;;6.13;2.60;;;3.30;99.90;;;;;;5016351;23;20489;-80
2021/12/02 01:04:25;;;;;;;4.65;2.70;;;3.30;99.90;;;;;;5016858;23;20015;-79
2021/12/02 01:06:27;;;;;;;10.45;2.78;;;3.20;99.90;;;;;;5015998;23;20110;-79
2021/12/02 01:08:28;;;;;;;9.35;3.47;;;3.10;99.90;;;;;;5014740;23;20019;-79
2021/12/02 01:10:29;;;;;;;6.63;3.45;;;3.00;99.90;;;;;;5016199;23;20030;-79
2021/12/02 01:12:30;;;;;;;13.73;4.15;;;2.90;99.90;;;;;;5014583;23;20015;-80
2021/12/02 01:14:30;;;;;;;8.13;2.78;;;2.80;99.90;;;;;;5014376;23;20018;-81
2021/12/02 01:16:31;;;;;;;7.70;3.95;;;2.70;99.90;;;;;;5016823;23;20347;-79
2021/12/02 01:18:32;;;;;;;10.75;3.58;;;2.70;99.90;;;;;;5014131;23;20014;-78
2021/12/02 01:20:33;;;;;;;10.73;3.40;;;2.60;99.90;;;;;;5015757;23;20086;-79
2021/12/02 01:22:38;;;;;;;6.38;3.15;;;2.70;99.90;;;;;;5014221;23;20022;-80
2021/12/02 01:24:41;;;;;;;9.40;3.67;;;2.80;99.90;;;;;;5017038;23;20014;-80
2021/12/02 01:26:50;;;;;;;11.00;3.38;;;2.90;99.90;;;;;;5013517;23;20055;-80
2021/12/02 01:28:51;;;;;;;9.00;2.90;;;3.00;99.90;;;;;;5013946;23;20035;-80
2021/12/02 01:30:53;;;;;;;6.78;3.35;;;3.20;99.90;;;;;;5015060;23;20498;-79
2021/12/02 01:33:04;;;;;;;11.25;2.88;;;3.40;99.90;;;;;;5015027;23;20029;-79
2021/12/02 01:35:07;;;;;;;10.43;2.53;;;3.50;99.90;;;;;;5014791;23;20138;-80
2021/12/02 01:37:10;;;;;;;3.58;3.28;;;3.60;99.90;;;;;;5012892;23;20095;-80
2021/12/02 01:39:11;;;;;;;7.55;2.90;;;3.60;99.90;;;;;;5015276;23;20010;-82
2021/12/02 01:41:12;;;;;;;7.35;3.47;;;3.60;99.90;;;;;;5015468;23;20519;-81
2021/12/02 01:43:18;;;;;;;7.93;3.17;;;3.60;99.90;;;;;;5015237;23;20023;-79
2021/12/02 01:45:27;;;;;;;6.15;2.65;;;3.50;99.90;;;;;;5013148;23;20094;-81
2021/12/02 01:47:31;;;;;;;6.15;2.70;;;3.50;99.90;;;;;;5015593;23;20022;-79
2021/12/02 01:49:36;;;;;;;4.40;2.50;;;3.40;99.90;;;;;;5015049;23;20093;-79
2021/12/02 01:51:42;;;;;;;5.43;2.53;;;3.20;99.90;;;;;;5013811;23;20011;-81
2021/12/02 01:53:43;;;;;;;10.82;2.90;;;3.20;99.90;;;;;;5013077;23;20027;-80
2021/12/02 01:55:52;;;;;;;6.97;2.55;;;3.10;99.90;;;;;;5015455;23;20102;-82
2021/12/02 01:58:05;;;;;;;7.40;2.50;;;3.10;99.90;;;;;;5012883;23;20027;-81
2021/12/02 02:00:15;;;;;;;11.23;3.30;;;3.00;99.90;;;;;;5011403;23;20062;-80
2021/12/02 02:02:19;;;;;;;9.23;3.17;;;2.90;99.90;;;;;;5014210;23;20072;-80
2021/12/02 02:04:21;;;;;;;5.47;2.50;;;2.90;99.90;;;;;;5015673;23;20019;-81
2021/12/02 02:06:29;;;;;;;10.38;2.90;;;2.90;99.90;;;;;;5014214;23;20046;-80
2021/12/02 02:08:30;;;;;;;13.68;3.05;;;2.90;99.90;;;;;;5015833;23;20090;-79
2021/12/02 02:10:37;;;;;;;7.43;2.50;;;2.90;99.90;;;;;;5014423;23;20026;-79
2021/12/02 02:12:38;;;;;;;6.85;2.92;;;3.00;99.90;;;;;;5016005;23;20017;-79
2021/12/02 02:14:41;;;;;;;6.65;2.50;;;3.00;99.90;;;;;;5016013;23;20006;-79
2021/12/02 02:16:44;;;;;;;5.60;2.42;;;3.10;99.90;;;;;;5014117;23;20070;-80
2021/12/02 02:18:45;;;;;;;4.40;2.85;;;3.20;99.90;;;;;;5015159;23;20011;-79
2021/12/02 02:21:08;;;;;;;5.25;2.30;;;3.30;99.90;;;;;;5013684;23;20427;-79
2021/12/02 02:23:13;;;;;;;4.82;2.97;;;3.30;99.90;;;;;;5013935;23;20042;-79
2021/12/02 02:25:18;;;;;;;6.93;2.25;;;3.40;99.90;;;;;;5015905;23;20060;-80
2021/12/02 02:27:20;;;;;;;8.73;3.47;;;3.40;99.90;;;;;;5013847;23;20675;-80
2021/12/02 02:29:22;;;;;;;10.13;2.70;;;3.40;99.90;;;;;;5013786;23;20015;-81
2021/12/02 02:31:25;;;;;;;6.80;2.28;;;3.30;99.90;;;;;;5016062;23;20025;-80
2021/12/02 02:33:33;;;;;;;5.35;3.25;;;3.30;99.90;;;;;;5013503;23;20014;-80
2021/12/02 02:35:34;;;;;;;5.15;2.75;;;3.30;99.90;;;;;;5015238;23;20021;-80
2021/12/02 02:37:37;;;;;;;3.35;2.20;;;3.30;99.90;;;;;;5013674;23;20112;-81
2021/12/02 02:39:38;;;;;;;6.07;2.80;;;3.30;99.90;;;;;;5015482;23;20050;-81
2021/12/02 02:41:41;;;;;;;7.20;2.55;;;3.30;99.90;;;;;;5016029;23;20467;-81
2021/12/02 02:43:50;;;;;;;10.93;2.67;;;3.20;99.90;;;;;;5013596;23;20671;-79
2021/12/02 02:45:51;;;;;;;8.95;2.90;;;3.20;99.90;;;;;;5014031;23;20042;-81
2021/12/02 02:47:52;;;;;;;3.40;2.42;;;3.10;99.90;;;;;;5013430;23;20030;-80
2021/12/02 02:49:53;;;;;;;6.70;2.30;;;3.10;99.90;;;;;;5016068;23;20025;-81
2021/12/02 02:51:55;;;;;;;3.63;2.45;;;3.10;99.90;;;;;;5014868;23;20403;-80
2021/12/02 02:54:00;;;;;;;2.75;2.13;;;3.10;99.90;;;;;;5016140;23;20023;-80
2021/12/02 02:56:07;;;;;;;9.70;4.03;;;3.10;99.90;;;;;;5014275;23;20477;-80
2021/12/02 03:00:33;;;;;;;5.20;3.45;;;3.10;99.90;;;;;;5014447;23;20163;-80
2021/12/02 03:04:58;;;;;;;5.85;2.40;;;3.30;99.90;;;;;;5015248;23;20367;-80
2021/12/02 03:07:05;;;;;;;8.52;2.58;;;3.30;99.90;;;;;;5011990;23;20003;-82
2021/12/02 03:09:15;;;;;;;5.90;2.58;;;3.20;99.90;;;;;;5012616;23;20447;-81
2021/12/02 03:11:18;;;;;;;8.60;3.00;;;3.20;99.90;;;;;;5013835;23;20026;-81
2021/12/02 03:17:22;;;;;;;8.38;2.67;;;2.80;99.90;;;;;;5018411;23;20046;-81
2021/12/02 03:19:28;;;;;;;5.60;3.05;;;2.70;99.90;;;;;;5015139;23;20011;-81
2021/12/02 03:21:29;;;;;;;7.32;3.40;;;2.60;99.90;;;;;;5013054;23;20007;-81
2021/12/02 03:23:30;;;;;;;6.15;2.67;;;2.50;99.90;;;;;;5012697;23;20007;-81
2021/12/02 03:25:34;;;;;;;12.00;3.33;;;2.50;99.90;;;;;;5015501;23;20029;-82
2021/12/02 03:27:34;;;;;;;4.70;2.40;;;2.70;99.90;;;;;;5015384;23;20018;-81
2021/12/02 03:29:36;;;;;;;6.82;2.78;;;2.70;99.90;;;;;;5015866;23;20610;-82
2021/12/02 03:31:36;;;;;;;10.00;2.50;;;2.80;99.90;;;;;;5014905;23;20523;-80
2021/12/02 03:33:37;;;;;;;11.73;2.95;;;2.90;99.90;;;;;;5015061;23;20015;-81
2021/12/02 03:35:37;;;;;;;4.97;3.40;;;3.00;99.90;;;;;;5015695;23;20727;-80
2021/12/02 03:37:38;;;;;;;5.30;2.50;;;3.00;99.90;;;;;;5013484;23;20070;-80
2021/12/02 03:39:39;;;;;;;11.05;2.90;;;3.00;99.90;;;;;;5015017;23;20025;-80
2021/12/02 03:41:41;;;;;;;10.20;2.78;;;3.00;99.90;;;;;;5015689;23;20017;-80
2021/12/02 03:43:46;;;;;;;7.32;2.75;;;3.10;99.90;;;;;;5015143;23;20025;-80
2021/12/02 03:45:46;;;;;;;9.02;3.05;;;3.10;99.90;;;;;;5013513;23;20041;-79
2021/12/02 03:47:47;;;;;;;6.80;2.67;;;3.10;99.90;;;;;;5015388;23;20082;-80
2021/12/02 03:49:47;;;;;;;5.75;2.20;;;3.10;99.90;;;;;;5015176;23;20111;-80
2021/12/02 03:51:49;;;;;;;6.43;2.50;;;3.10;99.90;;;;;;5014828;23;20018;-80
2021/12/02 03:53:50;;;;;;;11.60;3.03;;;3.10;99.90;;;;;;5015156;23;20113;-80
2021/12/02 03:55:50;;;;;;;7.85;2.80;;;3.00;99.90;;;;;;5014539;23;20010;-80
2021/12/02 03:57:51;;;;;;;4.85;2.70;;;3.00;99.90;;;;;;5013517;23;20046;-80
2021/12/02 03:59:51;;;;;;;5.88;3.03;;;2.90;99.90;;;;;;5011479;23;20046;-81
2021/12/02 04:01:52;;;;;;;6.57;2.47;;;3.00;99.90;;;;;;5014549;23;20460;-81
2021/12/02 04:03:53;;;;;;;6.63;2.60;;;3.00;99.90;;;;;;5015335;23;20015;-80
2021/12/02 04:05:53;;;;;;;6.25;2.88;;;3.00;99.90;;;;;;5014582;23;20037;-80
2021/12/02 04:07:54;;;;;;;10.05;3.13;;;3.10;99.90;;;;;;5015094;23;20047;-82
2021/12/02 04:09:55;;;;;;;6.97;2.58;;;3.10;99.90;;;;;;5014763;23;20145;-80
2021/12/02 04:14:34;;;;;;;5.57;2.75;;;3.10;99.90;;;;;;4918053;24;20113;-79
2021/12/02 04:16:37;;;;;;;8.50;3.10;;;3.10;99.90;;;;;;5014986;23;20042;-78
2021/12/02 04:18:38;;;;;;;8.45;3.08;;;3.00;99.90;;;;;;5014663;23;20440;-78
2021/12/02 04:20:38;;;;;;;6.97;3.00;;;3.00;99.90;;;;;;5013712;23;20101;-79
2021/12/02 04:22:39;;;;;;;7.68;2.88;;;2.90;99.90;;;;;;5012910;23;20530;-78
2021/12/02 04:24:40;;;;;;;9.90;3.60;;;2.80;99.90;;;;;;5015255;23;20066;-79
2021/12/02 04:26:42;;;;;;;11.57;3.15;;;2.80;99.90;;;;;;5015452;23;20439;-78
2021/12/02 04:28:44;;;;;;;5.15;3.13;;;2.90;99.90;;;;;;5015560;23;20067;-78
2021/12/02 04:30:45;;;;;;;17.80;3.97;;;2.90;99.90;;;;;;5015495;23;20438;-79
2021/12/02 04:32:46;;;;;;;13.27;3.10;;;3.10;99.90;;;;;;5015205;23;20015;-78
2021/12/02 04:34:48;;;;;;;6.15;2.80;;;3.10;99.90;;;;;;5015612;23;20395;-79
2021/12/02 04:36:48;;;;;;;6.97;2.75;;;3.20;99.90;;;;;;5012731;23;20569;-78
2021/12/02 04:38:49;;;;;;;6.85;3.10;;;3.10;99.90;;;;;;5015729;23;20019;-78
2021/12/02 04:40:50;;;;;;;7.00;2.95;;;3.10;99.90;;;;;;5013462;23;20450;-79
2021/12/02 04:42:50;;;;;;;7.93;2.72;;;3.10;99.90;;;;;;5014976;23;20026;-78
2021/12/02 04:44:51;;;;;;;7.22;3.80;;;3.00;99.90;;;;;;5013224;23;20019;-79
2021/12/02 04:46:53;;;;;;;6.78;3.35;;;2.90;99.90;;;;;;5015989;23;20011;-79
2021/12/02 04:48:53;;;;;;;4.68;2.65;;;2.90;99.90;;;;;;5013010;23;20466;-79
2021/12/02 04:50:56;;;;;;;8.95;3.35;;;2.90;99.90;;;;;;5015456;23;20015;-79
2021/12/02 04:52:57;;;;;;;2.75;2.28;;;2.90;99.90;;;;;;5014015;23;20019;-78
2021/12/02 04:54:58;;;;;;;6.22;2.67;;;2.90;99.90;;;;;;5013563;23;20018;-79
2021/12/02 04:56:59;;;;;;;8.60;2.70;;;2.80;99.90;;;;;;5013048;23;20034;-80
2021/12/02 04:58:59;;;;;;;7.70;3.20;;;2.80;99.90;;;;;;5015427;23;20003;-79
2021/12/02 05:01:00;;;;;;;9.90;2.80;;;2.80;99.90;;;;;;5013455;23;20053;-80
2021/12/02 05:03:01;;;;;;;5.88;2.75;;;2.80;99.90;;;;;;5015765;23;20011;-80
2021/12/02 05:05:02;;;;;;;7.30;2.78;;;2.80;99.90;;;;;;5015828;23;20022;-80
2021/12/02 05:07:03;;;;;;;3.78;2.25;;;2.70;99.90;;;;;;5016350;23;20019;-80
2021/12/02 05:09:04;;;;;;;10.00;2.28;;;2.70;99.90;;;;;;5014349;23;20074;-75
2021/12/02 05:11:04;;;;;;;5.70;2.15;;;2.50;99.90;;;;;;5016642;23;20038;-76
2021/12/02 05:13:05;;;;;;;2.70;2.10;;;2.40;99.90;;;;;;5015633;23;20031;-75
2021/12/02 05:15:06;;;;;;;6.53;2.30;;;2.40;99.90;;;;;;5016013;23;20039;-76
2021/12/02 05:17:07;;;;;;;2.15;1.90;;;2.30;99.90;;;;;;5014588;23;20038;-76
2021/12/02 05:19:08;;;;;;;5.68;3.53;;;2.20;99.90;;;;;;5016223;23;20011;-76
2021/12/02 05:21:08;;;;;;;7.28;2.45;;;2.20;99.90;;;;;;5016096;23;20417;-78
2021/12/02 05:23:09;;;;;;;2.85;2.20;;;2.00;99.90;;;;;;5013658;23;20327;-76
2021/12/02 05:25:10;;;;;;;5.25;2.08;;;2.00;99.90;;;;;;5015903;23;20110;-77
2021/12/02 05:27:12;;;;;;;9.02;2.58;;;2.00;99.90;;;;;;5014129;23;20050;-76
2021/12/02 05:29:13;;;;;;;6.88;2.72;;;2.00;99.90;;;;;;5015671;23;20356;-78
2021/12/02 05:31:13;;;;;;;4.65;2.38;;;2.00;99.90;;;;;;5014283;23;20029;-76
2021/12/02 05:33:14;;;;;;;3.22;2.05;;;1.90;99.90;;;;;;5015948;23;20025;-76
2021/12/02 05:35:15;;;;;;;5.95;2.28;;;2.00;99.90;;;;;;5015648;23;20018;-77
2021/12/02 05:37:16;;;;;;;4.78;3.00;;;2.00;99.90;;;;;;5015866;23;20474;-77
2021/12/02 05:39:17;;;;;;;6.15;2.30;;;1.90;99.90;;;;;;5013533;23;20802;-77
2021/12/02 05:41:18;;;;;;;3.60;2.25;;;1.70;99.90;;;;;;5016109;23;20097;-77
2021/12/02 05:43:18;;;;;;;6.70;2.72;;;1.60;99.90;;;;;;5015441;23;20333;-76
2021/12/02 05:45:19;;;;;;;5.55;2.40;;;1.60;99.90;;;;;;5016367;23;20018;-77
2021/12/02 05:47:20;;;;;;;3.58;2.42;;;1.60;99.90;;;;;;5013993;23;20086;-76
2021/12/02 05:49:21;;;;;;;3.92;2.85;;;1.80;99.90;;;;;;5016211;23;20651;-77
2021/12/02 05:51:22;;;;;;;5.95;2.20;;;1.90;99.90;;;;;;5013427;23;20022;-77
2021/12/02 05:53:22;;;;;;;11.00;2.60;;;2.00;99.90;;;;;;5015423;23;20027;-77
2021/12/02 05:55:23;;;;;;;6.20;2.70;;;2.10;99.90;;;;;;5012990;23;20368;-77
2021/12/02 05:57:25;;;;;;;6.90;2.75;;;2.20;99.90;;;;;;5015527;23;20034;-77
2021/12/02 05:59:25;;;;;;;7.63;2.35;;;2.20;99.90;;;;;;5013999;23;20477;-77
2021/12/02 06:01:26;;;;;;;10.38;3.78;;;2.20;99.90;;;;;;5011678;23;20007;-77
2021/12/02 06:03:27;;;;;;;8.80;2.80;;;2.10;99.90;;;;;;5015686;23;20094;-77
2021/12/02 06:05:28;;;;;;;8.02;3.00;;;2.10;99.90;;;;;;5016093;23;20102;-77
2021/12/02 06:07:28;;;;;;;7.20;2.33;;;2.10;99.90;;;;;;5015143;23;20019;-76
2021/12/02 06:09:29;;;;;;;4.35;2.10;;;2.00;99.90;;;;;;5015276;23;20309;-77
2021/12/02 06:11:30;;;;;;;3.25;2.30;;;1.80;99.90;;;;;;5014132;23;20076;-77
2021/12/02 06:13:30;;;;;;;4.93;2.40;;;1.70;99.90;;;;;;5014949;23;20365;-77
2021/12/02 06:15:31;;;;;;;4.50;2.15;;;1.70;99.90;;;;;;5015884;23;20023;-77
2021/12/02 06:17:33;;;;;;;5.32;2.67;;;1.60;99.90;;;;;;5013651;23;20018;-77
2021/12/02 06:19:33;;;;;;;4.53;3.10;;;1.60;99.90;;;;;;5013640;23;20015;-77
2021/12/02 06:21:34;;;;;;;8.93;3.10;;;1.60;99.90;;;;;;5013566;23;20042;-76
2021/12/02 06:23:36;;;;;;;6.90;3.20;;;1.50;99.90;;;;;;5013440;23;20017;-76
2021/12/02 06:27:43;;;;;;;6.18;2.88;;;1.50;99.90;;;;;;5017520;23;20018;-78
2021/12/02 06:29:43;;;;;;;6.68;3.78;;;1.50;99.90;;;;;;5013390;23;20023;-77
2021/12/02 06:31:44;;;;;;;5.50;3.35;;;1.40;99.90;;;;;;5015833;23;20050;-78
2021/12/02 06:33:45;;;;;;;5.60;4.28;;;1.30;99.90;;;;;;5013290;23;20026;-77
2021/12/02 06:35:45;;;;;;;6.18;3.70;;;1.20;99.90;;;;;;5015947;23;20019;-78
2021/12/02 06:37:46;;;;;;;7.38;3.83;;;1.10;99.90;;;;;;5012862;23;20105;-77
2021/12/02 06:39:47;;;;;;;3.90;2.80;;;1.00;99.90;;;;;;5016185;23;20017;-77
2021/12/02 06:41:47;;;;;;;6.22;3.60;;;0.90;99.90;;;;;;5013390;23;20471;-78
2021/12/02 06:43:48;;;;;;;8.77;3.55;;;0.90;99.90;;;;;;5013167;23;20022;-77
2021/12/02 06:45:50;;;;;;;6.60;3.20;;;0.80;99.90;;;;;;5014687;23;20027;-77
2021/12/02 06:47:52;;;;;;;8.23;3.42;;;0.80;99.90;;;;;;5010209;23;20045;-78
2021/12/02 06:49:53;;;;;;;9.73;4.28;;;0.70;99.90;;;;;;5012028;23;20325;-78
2021/12/02 06:51:53;;;;;;;7.82;3.15;;;0.90;99.90;;;;;;5014517;23;20022;-78
2021/12/02 06:53:54;;;;;;;4.28;3.10;;;0.90;99.90;;;;;;5010691;23;20042;-78
2021/12/02 06:55:55;;;;;;;4.43;3.10;;;0.90;99.90;;;;;;5014008;23;20812;-76
2021/12/02 06:57:56;;;;;;;6.15;3.05;;;0.80;99.90;;;;;;5012226;23;20041;-78
2021/12/02 06:59:59;;;;;;;8.05;3.58;;;0.70;99.90;;;;;;5012870;23;20033;-78
2021/12/02 07:02:00;;;;;;;8.77;3.30;;;0.70;99.90;;;;;;5012868;23;20110;-77
2021/12/02 07:04:01;;;;;;;8.43;3.50;;;0.80;99.90;;;;;;5012358;23;20022;-77
2021/12/02 07:06:02;;;;;;;7.15;3.20;;;0.80;99.90;;;;;;5012010;23;20049;-77
2021/12/02 07:08:04;;;;;;;11.13;4.45;;;0.90;99.90;;;;;;5012770;23;20053;-77
2021/12/02 07:10:07;;;;;;;7.90;3.03;;;0.90;99.90;;;;;;5015184;23;20025;-77
2021/12/02 07:12:08;;;;;;;7.95;3.65;;;0.80;99.90;;;;;;5013146;23;20041;-78
2021/12/02 07:14:14;;;;;;;8.98;5.07;;;0.80;99.90;;;;;;5013485;23;20023;-77
2021/12/02 07:16:14;;;;;;;7.57;3.78;;;0.90;99.90;;;;;;5014723;23;20876;-76
2021/12/02 07:18:15;;;;;;;8.93;3.50;;;0.90;99.90;;;;;;5014949;23;20040;-78
2021/12/02 07:20:17;;;;;;;8.35;3.97;;;1.00;99.90;;;;;;5012762;23;20034;-77
2021/12/02 07:22:19;;;;;;;10.10;3.78;;;1.10;99.90;;;;;;5013780;23;20066;-78
2021/12/02 07:24:19;;;;;;;10.65;4.22;;;1.30;99.90;;;;;;5014718;23;20754;-77
2021/12/02 07:26:20;;;;;;;11.82;3.83;;;1.40;99.90;;;;;;5013422;23;20022;-79
2021/12/02 07:28:21;;;;;;;5.53;3.97;;;1.50;99.90;;;;;;5013856;23;21519;-77
2021/12/02 07:30:22;;;;;;;9.15;3.60;;;1.50;99.90;;;;;;5012805;23;20046;-77
2021/12/02 07:32:33;;;;;;;10.57;3.97;;;1.60;99.90;;;;;;5007115;23;20015;-77
2021/12/02 07:34:34;;;;;;;10.45;4.22;;;1.70;99.90;;;;;;5001749;23;20030;-77
2021/12/02 07:36:38;;;;;;;10.65;4.72;;;1.70;99.90;;;;;;5003378;23;20101;-77
2021/12/02 07:38:38;;;;;;;9.75;5.05;;;1.80;99.90;;;;;;5006038;23;20089;-77
2021/12/02 07:40:41;;;;;;;10.85;5.20;;;1.90;99.90;;;;;;5004304;23;20014;-78
2021/12/02 07:42:43;;;;;;;12.23;4.85;;;2.00;99.90;;;;;;5004156;23;20054;-77
2021/12/02 07:44:44;;;;;;;6.63;4.13;;;2.00;99.90;;;;;;5006131;23;20146;-77
2021/12/02 07:46:45;;;;;;;8.50;4.10;;;2.10;99.90;;;;;;5006035;23;20018;-77
2021/12/02 07:48:46;;;;;;;10.60;5.10;;;2.10;99.90;;;;;;5004048;23;20085;-77
2021/12/02 07:50:46;;;;;;;10.70;4.30;;;2.10;99.90;;;;;;5006682;23;20034;-78
2021/12/02 07:52:52;;;;;;;13.88;5.00;;;2.10;99.90;;;;;;5003309;23;20106;-77
2021/12/02 07:54:55;;;;;;;6.72;4.28;;;2.10;99.90;;;;;;5003242;23;20038;-77
2021/12/02 07:56:55;;;;;;;16.55;5.38;;;2.10;99.90;;;;;;5004893;23;20053;-76
2021/12/02 07:58:56;;;;;;;8.52;4.93;;;2.20;99.90;;;;;;5003231;23;20018;-76
2021/12/02 08:01:00;;;;;;;9.52;3.53;;;2.30;99.90;;;;;;5003590;23;20011;-77
2021/12/02 08:03:01;;;;;;;11.27;4.35;;;2.40;99.90;;;;;;5006543;23;20010;-77
2021/12/02 08:05:03;;;;;;;12.00;4.72;;;2.40;99.90;;;;;;5005628;23;20075;-77
2021/12/02 08:07:04;;;;;;;8.63;3.40;;;2.40;99.90;;;;;;5004328;23;20094;-76
2021/12/02 08:09:06;;;;;;;8.75;4.05;;;2.40;99.90;;;;;;5002891;23;20387;-77
2021/12/02 08:11:07;;;;;;;14.05;3.65;;;2.30;99.90;;;;;;5002906;23;20011;-77
2021/12/02 08:13:08;;;;;;;8.75;2.95;;;2.30;99.90;;;;;;5004333;23;20038;-77
2021/12/02 08:15:09;;;;;;;7.53;2.85;;;2.30;99.90;;;;;;5005568;23;20022;-77
2021/12/02 08:17:10;;;;;;;10.43;6.22;;;2.30;99.90;;;;;;5005643;23;20026;-77
2021/12/02 08:19:11;;;;;;;8.73;2.95;;;2.30;99.90;;;;;;5003402;23;20014;-77
2021/12/02 08:21:12;;;;;;;3.65;3.15;;;2.30;99.90;;;;;;5006184;23;20011;-78
2021/12/02 08:23:13;;;;;;;7.55;3.63;;;2.40;99.90;;;;;;5003559;23;20018;-77
2021/12/02 08:25:15;;;;;;;7.85;2.78;;;2.40;99.90;;;;;;5006005;23;20057;-76
2021/12/02 08:27:16;;;;;;;5.85;2.88;;;2.40;99.90;;;;;;5004256;23;20019;-77
2021/12/02 08:29:17;;;;;;;3.20;2.42;;;2.40;99.90;;;;;;5006055;23;20015;-78
2021/12/02 08:31:17;;;;;;;5.38;3.00;;;2.40;99.90;;;;;;5004688;23;20517;-76
2021/12/02 08:33:19;;;;;;;9.65;3.00;;;2.40;99.90;;;;;;5003969;23;20023;-76
2021/12/02 08:35:21;;;;;;;7.60;2.88;;;2.40;99.90;;;;;;5004884;23;20011;-77
2021/12/02 08:37:22;;;;;;;5.93;3.15;;;2.40;99.90;;;;;;5006392;23;20042;-78
2021/12/02 08:39:26;;;;;;;8.00;3.03;;;2.40;99.90;;;;;;5005336;23;20011;-78
2021/12/02 08:41:27;;;;;;;4.15;2.80;;;2.40;99.90;;;;;;5005311;23;20010;-78
2021/12/02 08:43:29;;;;;;;4.70;2.40;;;2.40;99.90;;;;;;5006082;23;20038;-78
2021/12/02 08:45:32;;;;;;;5.70;3.42;;;2.30;99.90;;;;;;5006360;23;20026;-77
2021/12/02 08:47:32;;;;;;;5.03;2.97;;;2.30;99.90;;;;;;4999612;23;21042;-78
2021/12/02 08:49:33;;;;;;;5.53;3.20;;;2.20;99.90;;;;;;4998642;23;20146;-78
2021/12/02 08:51:34;;;;;;;6.55;3.45;;;2.10;99.90;;;;;;4999295;23;20328;-78
2021/12/02 08:53:34;;;;;;;4.10;3.20;;;2.10;99.90;;;;;;4999513;23;20057;-78
2021/12/02 08:55:36;;;;;;;4.93;3.33;;;2.00;99.90;;;;;;5001996;23;20438;-78
2021/12/02 08:57:37;;;;;;;10.50;3.33;;;1.90;99.90;;;;;;4999332;23;20050;-78
2021/12/02 08:59:40;;;;;;;11.13;3.45;;;1.80;99.90;;;;;;4996179;23;20530;-78
2021/12/02 09:01:41;;;;;;;5.57;3.80;;;1.90;99.90;;;;;;5005326;23;20019;-78
2021/12/02 09:03:41;;;;;;;5.13;3.20;;;2.00;99.90;;;;;;5008021;23;20018;-78
2021/12/02 09:05:43;;;;;;;12.18;5.18;;;2.20;99.90;;;;;;5008156;23;20868;-78
2021/12/02 09:07:44;;;;;;;6.10;3.58;;;2.40;99.90;;;;;;5007655;23;20015;-78
2021/12/02 09:09:45;;;;;;;4.15;2.72;;;2.60;99.90;;;;;;5007437;23;20034;-78
2021/12/02 09:11:45;;;;;;;7.10;2.92;;;2.80;99.90;;;;;;5006986;23;20019;-78
2021/12/02 09:13:47;;;;;;;6.13;3.15;;;3.00;99.90;;;;;;5005936;23;20041;-78
2021/12/02 09:15:48;;;;;;;4.75;3.10;;;3.00;99.90;;;;;;5007764;23;20117;-78
2021/12/02 09:17:48;;;;;;;3.65;2.22;;;2.90;99.90;;;;;;5006045;23;20015;-78
2021/12/02 09:19:49;;;;;;;3.72;2.45;;;2.80;99.90;;;;;;5005882;23;20220;-77
2021/12/02 09:21:50;;;;;;;4.75;2.70;;;2.70;99.90;;;;;;5008083;23;20018;-78
2021/12/02 09:23:51;;;;;;;4.93;3.22;;;2.60;99.90;;;;;;5006702;23;20022;-78
2021/12/02 09:25:52;;;;;;;7.10;4.10;;;2.60;99.90;;;;;;5007130;23;20463;-79
2021/12/02 09:27:53;;;;;;;3.85;3.25;;;2.60;99.90;;;;;;5005903;23;20125;-77
2021/12/02 09:29:53;;;;;;;5.40;3.70;;;2.60;99.90;;;;;;5006971;23;20022;-77
2021/12/02 09:31:55;;;;;;;2.50;2.25;;;2.50;99.90;;;;;;5007043;23;20010;-79
2021/12/02 09:33:55;;;;;;;6.93;3.50;;;2.40;99.90;;;;;;5006932;23;20042;-79
2021/12/02 09:35:56;;;;;;;5.80;2.92;;;2.40;99.90;;;;;;5005525;23;20026;-76
2021/12/02 09:37:57;;;;;;;7.47;2.90;;;2.30;99.90;;;;;;5004392;23;20027;-78
2021/12/02 09:39:58;;;;;;;3.63;3.08;;;2.20;99.90;;;;;;5007154;23;20023;-78
2021/12/02 09:41:59;;;;;;;5.53;3.28;;;2.10;99.90;;;;;;5005712;23;20015;-78
2021/12/02 09:44:00;;;;;;;7.65;4.22;;;2.20;99.90;;;;;;5005584;23;20037;-76
2021/12/02 09:46:01;;;;;;;6.95;3.00;;;2.20;99.90;;;;;;5007467;23;20064;-76
2021/12/02 09:48:02;;;;;;;6.72;3.20;;;2.20;99.90;;;;;;5007759;23;20030;-77
2021/12/02 09:50:10;;;;;;;8.90;3.08;;;2.10;99.90;;;;;;5004855;23;20040;-76
2021/12/02 09:52:13;;;;;;;6.80;2.70;;;2.20;99.90;;;;;;5006330;23;20026;-76
2021/12/02 09:54:21;;;;;;;6.07;3.35;;;2.30;99.90;;;;;;5006725;23;20046;-76
2021/12/02 09:56:32;;;;;;;7.28;3.05;;;2.40;99.90;;;;;;5008188;23;20110;-76
2021/12/02 09:58:33;;;;;;;5.57;2.95;;;2.50;99.90;;;;;;5006354;23;20089;-76
2021/12/02 10:00:39;;;;;;;6.60;2.88;;;2.70;99.90;;;;;;5007456;23;20035;-76
2021/12/02 10:02:49;;;;;;;3.90;2.20;;;2.80;99.90;;;;;;5007360;23;20015;-77
2021/12/02 10:04:59;;;;;;;7.18;3.63;;;2.90;99.90;;;;;;5005384;23;20097;-77
2021/12/02 10:07:23;;;;;;;7.13;3.67;;;3.10;99.90;;;;;;5007404;23;20019;-77
2021/12/02 10:09:33;;;;;;;;;;;3.20;99.90;;;;;;5004706;23;20043;-77
2021/12/02 10:11:41;;;;;;;9.75;2.53;;;3.20;99.90;;;;;;5005867;23;19914;-77
2021/12/02 10:13:57;;;;;;;4.70;2.40;;;3.20;99.90;;;;;;5004647;23;20094;-77
2021/12/02 10:16:22;;;;;;;5.93;3.00;;;3.20;99.90;;;;;;5005539;23;20019;-77
2021/12/02 10:18:34;;;;;;;4.15;2.65;;;3.30;99.90;;;;;;5004447;23;20019;-77
2021/12/02 10:20:41;;;;;;;3.53;2.63;;;3.30;99.90;;;;;;5006980;23;20019;-77
2021/12/02 10:23:01;;;;;;;7.50;2.53;;;3.50;99.90;;;;;;5007416;23;20019;-77
2021/12/02 10:25:02;;;;;;;9.30;2.70;;;4.00;99.90;;;;;;5005288;23;20095;-77
2021/12/02 10:27:05;;;;;;;6.70;2.45;;;4.50;99.90;;;;;;5004519;23;20332;-78
2021/12/02 10:29:09;;;;;;;4.60;2.35;;;4.90;99.90;;;;;;5007003;23;20006;-77
2021/12/02 10:31:16;;;;;;;4.15;2.25;;;5.00;99.90;;;;;;5006868;23;20554;-77
2021/12/02 10:33:32;;;;;;;5.72;2.65;;;5.30;99.90;;;;;;5004535;23;20355;-77
2021/12/02 10:35:46;;;;;;;4.70;2.22;;;5.70;99.90;;;;;;5004765;23;20010;-78
2021/12/02 10:37:46;;;;;;;5.13;2.33;;;6.00;99.90;;;;;;5005714;23;21112;-78
2021/12/02 10:40:07;;;;;;;3.90;2.17;;;6.20;99.90;;;;;;5004201;23;20074;-77
2021/12/02 10:42:09;;;;;;;4.68;2.42;;;6.60;99.90;;;;;;5003382;23;20448;-77
2021/12/02 10:44:18;;;;;;;5.00;2.30;;;6.70;99.90;;;;;;5007201;23;20011;-77
2021/12/02 10:46:19;;;;;;;3.05;2.08;;;6.90;99.90;;;;;;5006482;23;20094;-77
2021/12/02 10:48:20;;;;;;;6.75;2.50;;;6.80;99.90;;;;;;5004816;23;20022;-78
2021/12/02 10:50:23;;;;;;;4.78;2.38;;;6.70;99.90;;;;;;5006280;23;20018;-77
2021/12/02 10:52:30;;;;;;;7.75;2.40;;;6.60;99.90;;;;;;5006380;23;20017;-77
2021/12/02 10:54:34;;;;;;;4.82;2.47;;;6.90;99.90;;;;;;5006649;23;20041;-77
2021/12/02 10:56:36;;;;;;;;;;;7.00;99.90;;;;;;5006662;23;20098;-77
2021/12/02 10:58:37;;;;;;;3.28;2.40;;;6.90;99.90;;;;;;5004218;23;19910;-77
2021/12/02 11:00:42;;;;;;;4.60;2.33;;;6.70;99.90;;;;;;5003884;23;20531;-77
2021/12/02 11:02:49;;;;;;;3.78;2.20;;;6.30;99.90;;;;;;5005471;23;20015;-77